Time;durP1;ratioP1;P1;durP2;ratioP2;P2;SDS_P1;SDS_P2;PMS_P1;PMS_P2;Temp;Humidity;BMP_temperature;BMP_pressure;BME280_temperature;BME280_humidity;BME280_pressure;Samples;Min_cycle;Max_cycle;Signal;HPM_P1;HPM_P2
2023/11/29 00:01:34;;;;;;;15.97;11.03;;;6.10;99.90;;;;;;5055998;28;20100;-73
2023/11/29 00:03:35;;;;;;;14.23;8.53;;;6.10;99.90;;;;;;5051170;28;20135;-74
2023/11/29 00:09:00;;;;;;;16.77;11.23;;;6.10;99.90;;;;;;5045092;28;20043;-74
2023/11/29 00:11:40;;;;;;;18.17;13.57;;;6.00;99.90;;;;;;5075175;28;20385;-74
2023/11/29 00:14:12;;;;;;;22.97;16.87;;;6.00;99.90;;;;;;5072449;28;20048;-74
2023/11/29 00:16:50;;;;;;;22.83;17.50;;;6.00;99.90;;;;;;5075205;28;20393;-74
2023/11/29 00:19:16;;;;;;;25.37;17.77;;;6.00;99.90;;;;;;5075230;28;20392;-73
2023/11/29 00:21:43;;;;;;;25.23;17.23;;;5.90;99.90;;;;;;5074714;28;20047;-75
2023/11/29 00:24:12;;;;;;;23.30;17.57;;;5.90;99.90;;;;;;5074764;28;20162;-75
2023/11/29 00:26:38;;;;;;;21.53;16.77;;;5.80;99.90;;;;;;5075225;28;20032;-74
2023/11/29 00:29:04;;;;;;;24.07;15.80;;;5.70;99.90;;;;;;5074859;28;20066;-75
2023/11/29 00:31:30;;;;;;;20.83;14.83;;;5.70;99.90;;;;;;5074671;28;20404;-74
2023/11/29 00:33:55;;;;;;;20.57;15.43;;;5.70;99.90;;;;;;5074547;28;20037;-75
2023/11/29 00:36:21;;;;;;;21.63;15.87;;;5.60;99.90;;;;;;5074751;28;20041;-75
2023/11/29 00:38:47;;;;;;;31.50;14.93;;;5.60;99.90;;;;;;5074675;28;20101;-74
2023/11/29 00:41:13;;;;;;;25.53;13.40;;;5.60;99.90;;;;;;5059551;28;20036;-74
2023/11/29 00:43:39;;;;;;;42.10;14.07;;;5.50;99.90;;;;;;5054379;28;20079;-74
2023/11/29 00:46:05;;;;;;;15.60;13.13;;;5.40;99.90;;;;;;5054441;28;20029;-74
2023/11/29 00:48:31;;;;;;;21.47;14.33;;;5.30;99.90;;;;;;5054301;28;20037;-74
2023/11/29 00:50:57;;;;;;;33.57;14.93;;;5.20;99.90;;;;;;5054540;28;20044;-74
2023/11/29 00:53:24;;;;;;;45.07;14.13;;;5.20;99.90;;;;;;5054075;28;20378;-74
2023/11/29 00:55:49;;;;;;;18.20;13.73;;;5.20;99.90;;;;;;5054198;28;20071;-74
2023/11/29 00:58:15;;;;;;;16.10;13.53;;;5.10;99.90;;;;;;5054215;28;20061;-74
2023/11/29 01:00:41;;;;;;;19.10;13.73;;;5.00;99.90;;;;;;5054014;28;20033;-73
2023/11/29 01:03:07;;;;;;;16.27;13.43;;;5.00;99.90;;;;;;5053659;28;20036;-74
2023/11/29 01:05:32;;;;;;;16.93;13.47;;;5.00;99.90;;;;;;5053964;28;20037;-74
2023/11/29 01:07:58;;;;;;;19.13;14.37;;;5.00;99.90;;;;;;5054236;28;20119;-75
2023/11/29 01:10:24;;;;;;;18.53;13.97;;;4.90;99.90;;;;;;5053668;28;20033;-74
2023/11/29 01:12:50;;;;;;;20.50;14.70;;;5.00;99.90;;;;;;5053413;28;20065;-75
2023/11/29 01:15:16;;;;;;;18.23;15.03;;;4.90;99.90;;;;;;5053688;28;20114;-74
2023/11/29 01:17:43;;;;;;;22.83;15.53;;;4.90;99.90;;;;;;5052265;28;20176;-74
2023/11/29 01:20:09;;;;;;;23.40;15.67;;;4.80;99.90;;;;;;5053644;28;20036;-74
2023/11/29 01:22:35;;;;;;;20.53;15.67;;;4.80;99.90;;;;;;5053665;28;20029;-74
2023/11/29 01:25:01;;;;;;;22.27;15.13;;;4.90;99.90;;;;;;5053635;28;20037;-74
2023/11/29 01:27:30;;;;;;;20.03;15.23;;;4.80;99.90;;;;;;5053491;28;20035;-74
2023/11/29 01:29:57;;;;;;;21.00;14.83;;;4.80;99.90;;;;;;5054254;28;20387;-73
2023/11/29 01:32:24;;;;;;;20.43;14.23;;;4.80;99.90;;;;;;5053596;28;20461;-74
2023/11/29 01:34:50;;;;;;;23.33;13.70;;;4.90;99.90;;;;;;5053925;28;20430;-75
2023/11/29 01:37:16;;;;;;;17.00;13.77;;;4.90;99.90;;;;;;5053953;28;20033;-75
2023/11/29 01:39:44;;;;;;;17.63;13.73;;;4.80;99.90;;;;;;5053777;28;20056;-73
2023/11/29 01:42:11;;;;;;;18.80;13.63;;;4.80;99.90;;;;;;5053931;28;20068;-74
2023/11/29 01:44:40;;;;;;;18.47;13.03;;;4.80;99.90;;;;;;5035354;28;20041;-72
2023/11/29 01:47:16;;;;;;;16.73;13.23;;;4.70;99.90;;;;;;5053450;28;20116;-74
2023/11/29 01:49:45;;;;;;;17.00;13.03;;;4.70;99.90;;;;;;5053505;28;20112;-73
2023/11/29 01:52:14;;;;;;;15.93;12.93;;;4.70;99.90;;;;;;5053277;28;20040;-74
2023/11/29 01:54:40;;;;;;;18.17;13.30;;;4.70;99.90;;;;;;5053574;28;20447;-75
2023/11/29 01:57:06;;;;;;;16.33;12.87;;;4.70;99.90;;;;;;5053101;28;20037;-73
2023/11/29 01:59:32;;;;;;;19.03;13.97;;;4.60;99.90;;;;;;5069759;28;20137;-74
2023/11/29 02:02:01;;;;;;;17.10;13.10;;;4.60;99.90;;;;;;5069709;28;20128;-75
2023/11/29 02:04:30;;;;;;;19.83;13.40;;;4.60;99.90;;;;;;5070933;28;20446;-74
2023/11/29 02:06:56;;;;;;;17.47;12.90;;;4.60;99.90;;;;;;5072394;28;20391;-73
2023/11/29 02:09:23;;;;;;;19.77;13.03;;;4.60;99.90;;;;;;5072991;28;20032;-74
2023/11/29 02:11:49;;;;;;;18.13;12.07;;;4.50;99.90;;;;;;5054996;28;20086;-73
2023/11/29 02:14:15;;;;;;;16.43;12.13;;;4.50;99.90;;;;;;5072657;28;20052;-75
2023/11/29 02:16:42;;;;;;;17.10;10.60;;;4.60;99.90;;;;;;5072731;28;20052;-74
2023/11/29 02:19:08;;;;;;;16.90;11.47;;;4.60;99.90;;;;;;5072826;28;20043;-75
2023/11/29 02:21:34;;;;;;;17.57;10.70;;;4.60;99.90;;;;;;5072707;28;20059;-74
2023/11/29 02:24:14;;;;;;;13.40;9.50;;;4.60;99.90;;;;;;5072612;28;20089;-74
2023/11/29 02:26:41;;;;;;;13.60;9.83;;;4.50;99.90;;;;;;5072584;28;20370;-73
2023/11/29 02:29:07;;;;;;;11.53;7.90;;;4.50;99.90;;;;;;5072605;28;20238;-74
2023/11/29 02:31:33;;;;;;;12.97;8.10;;;4.50;99.90;;;;;;5072581;28;20459;-75
2023/11/29 02:34:01;;;;;;;10.90;7.20;;;4.50;99.90;;;;;;5072459;28;20063;-74
2023/11/29 02:36:27;;;;;;;12.90;8.53;;;4.50;99.90;;;;;;5054494;28;20421;-73
2023/11/29 02:38:52;;;;;;;12.93;9.37;;;4.50;99.90;;;;;;5054290;28;20124;-74
2023/11/29 02:41:18;;;;;;;18.23;11.00;;;4.40;99.90;;;;;;5072434;28;20082;-73
2023/11/29 02:43:44;;;;;;;14.57;10.60;;;4.40;99.90;;;;;;5072456;28;20059;-74
2023/11/29 02:46:10;;;;;;;14.83;10.70;;;4.40;99.90;;;;;;5072799;28;20029;-74
2023/11/29 02:48:36;;;;;;;13.70;10.17;;;4.30;99.90;;;;;;5072305;28;20045;-74
2023/11/29 02:51:02;;;;;;;13.50;9.73;;;4.30;99.90;;;;;;5072650;28;20036;-74
2023/11/29 02:53:27;;;;;;;14.27;10.03;;;4.20;99.90;;;;;;5072587;28;20025;-73
2023/11/29 02:55:53;;;;;;;15.97;9.87;;;4.10;99.90;;;;;;5072398;28;20025;-74
2023/11/29 02:58:19;;;;;;;13.67;9.87;;;4.10;99.90;;;;;;5074852;28;20059;-73
2023/11/29 03:00:45;;;;;;;13.67;9.63;;;4.10;99.90;;;;;;5076584;28;20028;-73
2023/11/29 03:03:11;;;;;;;17.57;10.10;;;4.00;99.90;;;;;;5058180;28;20128;-73
2023/11/29 03:05:36;;;;;;;11.23;8.47;;;4.00;99.90;;;;;;5077036;28;20082;-74
2023/11/29 03:08:04;;;;;;;11.57;7.10;;;4.00;99.90;;;;;;5077173;28;20036;-75
2023/11/29 03:10:30;;;;;;;10.43;7.30;;;4.00;99.90;;;;;;5076927;28;20385;-74
2023/11/29 03:12:56;;;;;;;11.70;7.83;;;3.90;99.90;;;;;;5076333;28;20070;-74
2023/11/29 03:15:21;;;;;;;11.73;7.80;;;3.90;99.90;;;;;;5076910;28;20056;-74
2023/11/29 03:17:51;;;;;;;12.93;8.43;;;3.90;99.90;;;;;;5076417;28;20036;-74
2023/11/29 03:20:25;;;;;;;10.73;7.20;;;3.90;99.90;;;;;;5076216;28;20033;-74
2023/11/29 03:22:54;;;;;;;8.80;6.07;;;3.90;99.90;;;;;;5076042;28;20041;-75
2023/11/29 03:25:29;;;;;;;12.67;6.93;;;3.90;99.90;;;;;;5076134;28;20392;-74
2023/11/29 03:27:55;;;;;;;8.37;5.73;;;3.90;99.90;;;;;;5075740;28;20029;-74
2023/11/29 03:30:30;;;;;;;10.70;6.47;;;3.90;99.90;;;;;;5075660;28;20447;-74
2023/11/29 03:32:59;;;;;;;11.63;7.83;;;3.90;99.90;;;;;;5058200;28;20029;-73
2023/11/29 03:35:28;;;;;;;12.00;7.97;;;3.80;99.90;;;;;;5075712;28;20384;-74
2023/11/29 03:37:54;;;;;;;12.17;7.50;;;3.80;99.90;;;;;;5076057;28;20392;-74
2023/11/29 03:40:20;;;;;;;10.83;7.23;;;3.80;99.90;;;;;;5075758;28;20025;-74
2023/11/29 03:42:49;;;;;;;13.40;7.93;;;3.70;99.90;;;;;;5074964;28;20040;-74
2023/11/29 03:45:15;;;;;;;9.53;7.27;;;3.70;99.90;;;;;;5075661;28;20028;-74
2023/11/29 03:47:41;;;;;;;10.60;8.03;;;3.70;99.90;;;;;;5075691;28;20025;-74
2023/11/29 03:50:07;;;;;;;11.10;7.90;;;3.70;99.90;;;;;;5075570;28;20512;-75
2023/11/29 03:52:33;;;;;;;12.00;8.70;;;3.70;99.90;;;;;;5075600;28;20041;-74
2023/11/29 03:54:59;;;;;;;9.67;7.80;;;3.60;99.90;;;;;;5075354;28;20039;-74
2023/11/29 03:57:25;;;;;;;10.87;8.43;;;3.60;99.90;;;;;;5075144;28;20488;-75
2023/11/29 03:59:51;;;;;;;12.27;8.37;;;3.60;99.90;;;;;;5075000;28;20472;-72
2023/11/29 04:02:16;;;;;;;12.33;8.13;;;3.50;99.90;;;;;;5075166;28;20090;-74
2023/11/29 04:04:42;;;;;;;8.90;7.17;;;3.50;99.90;;;;;;5074848;28;20040;-75
2023/11/29 04:07:08;;;;;;;13.47;9.10;;;3.50;99.90;;;;;;5073756;28;20496;-71
2023/11/29 04:09:34;;;;;;;12.43;9.27;;;3.50;99.90;;;;;;5034399;28;20034;-74
2023/11/29 04:12:00;;;;;;;14.03;8.73;;;3.50;99.90;;;;;;5035367;28;20030;-73
2023/11/29 04:14:26;;;;;;;11.87;6.73;;;3.40;99.90;;;;;;5034973;28;20510;-75
2023/11/29 04:16:52;;;;;;;11.27;6.10;;;3.40;99.90;;;;;;5035346;28;20405;-73
2023/11/29 04:19:17;;;;;;;8.77;5.97;;;3.40;99.90;;;;;;5035216;28;20041;-74
2023/11/29 04:21:43;;;;;;;10.77;6.00;;;3.40;99.90;;;;;;5035024;28;20029;-74
2023/11/29 04:24:09;;;;;;;9.50;6.40;;;3.40;99.90;;;;;;5034739;28;20041;-73
2023/11/29 04:26:36;;;;;;;8.53;6.60;;;3.40;99.90;;;;;;5034706;28;20025;-75
2023/11/29 04:29:04;;;;;;;9.30;6.23;;;3.40;99.90;;;;;;5034739;28;20037;-73
2023/11/29 04:31:31;;;;;;;8.47;5.70;;;3.40;99.90;;;;;;5034638;28;20040;-74
2023/11/29 04:33:57;;;;;;;7.07;5.37;;;3.40;99.90;;;;;;5034619;28;20379;-74
2023/11/29 04:36:23;;;;;;;12.33;6.00;;;3.30;99.90;;;;;;5034486;28;20087;-74
2023/11/29 04:38:50;;;;;;;8.80;5.03;;;3.30;99.90;;;;;;5034464;28;20034;-73
2023/11/29 04:41:17;;;;;;;7.00;3.97;;;3.30;99.90;;;;;;5034562;28;20042;-74
2023/11/29 04:43:44;;;;;;;8.47;5.50;;;3.40;99.90;;;;;;5034681;28;20037;-74
2023/11/29 04:46:09;;;;;;;9.43;7.63;;;3.30;99.90;;;;;;5034442;28;20040;-74
2023/11/29 04:48:36;;;;;;;5.10;3.37;;;3.30;99.90;;;;;;5034746;28;21153;-75
2023/11/29 04:51:02;;;;;;;5.33;2.90;;;3.30;99.90;;;;;;5035095;28;20064;-74
2023/11/29 04:53:28;;;;;;;3.70;2.30;;;3.40;99.90;;;;;;5034866;28;20424;-74
2023/11/29 04:55:55;;;;;;;4.60;2.80;;;3.40;99.90;;;;;;5034866;28;20095;-74
2023/11/29 04:58:24;;;;;;;3.97;2.87;;;3.40;99.90;;;;;;5034685;28;20061;-74
2023/11/29 05:00:51;;;;;;;3.70;2.73;;;3.40;99.90;;;;;;5034721;28;20041;-74
2023/11/29 05:03:20;;;;;;;6.53;2.33;;;3.40;99.90;;;;;;5034691;28;20033;-73
2023/11/29 05:05:47;;;;;;;3.80;2.43;;;3.40;99.90;;;;;;5016643;28;20059;-74
2023/11/29 05:08:14;;;;;;;5.23;4.70;;;3.40;99.90;;;;;;5016630;28;20393;-74
2023/11/29 05:10:41;;;;;;;4.60;3.80;;;3.40;99.90;;;;;;5033901;28;20040;-73
2023/11/29 05:13:07;;;;;;;6.03;3.47;;;3.40;99.90;;;;;;5033820;28;20433;-73
2023/11/29 05:15:34;;;;;;;7.03;2.40;;;3.40;99.90;;;;;;5051268;28;20032;-74
2023/11/29 05:18:04;;;;;;;3.83;1.77;;;3.40;99.90;;;;;;5058019;28;20041;-74
2023/11/29 05:20:31;;;;;;;2.97;1.80;;;3.40;99.90;;;;;;5053811;28;20037;-74
2023/11/29 05:22:57;;;;;;;3.20;2.07;;;3.40;99.90;;;;;;5053065;28;20044;-74
2023/11/29 05:25:24;;;;;;;2.60;1.80;;;3.40;99.90;;;;;;5053897;28;20388;-74
2023/11/29 05:27:50;;;;;;;2.60;1.57;;;3.40;99.90;;;;;;5054616;28;20377;-74
2023/11/29 05:30:19;;;;;;;2.53;1.77;;;3.40;99.90;;;;;;5070379;28;20044;-75
2023/11/29 05:32:46;;;;;;;4.70;1.80;;;3.40;99.90;;;;;;5063141;28;20464;-74
2023/11/29 05:35:12;;;;;;;3.70;1.87;;;3.50;99.90;;;;;;5069567;28;20366;-74
2023/11/29 05:37:38;;;;;;;4.00;2.50;;;3.50;99.90;;;;;;5067390;28;20404;-73
2023/11/29 05:40:08;;;;;;;2.37;1.60;;;3.40;99.90;;;;;;5072449;28;20160;-73
2023/11/29 05:42:35;;;;;;;2.50;1.60;;;3.40;99.90;;;;;;5058988;28;20432;-73
2023/11/29 05:45:01;;;;;;;3.97;1.93;;;3.50;99.90;;;;;;5071084;28;20099;-74
2023/11/29 05:47:29;;;;;;;3.77;2.50;;;3.40;99.90;;;;;;5069246;28;20507;-74
2023/11/29 05:49:55;;;;;;;4.77;2.20;;;3.40;99.90;;;;;;5069457;28;20048;-74
2023/11/29 05:52:20;;;;;;;4.33;2.20;;;3.40;99.90;;;;;;5070310;28;20032;-74
2023/11/29 05:54:46;;;;;;;4.47;2.10;;;3.50;99.90;;;;;;5068442;28;20060;-74
2023/11/29 05:57:12;;;;;;;6.00;2.50;;;3.40;99.90;;;;;;5066541;28;20047;-74
2023/11/29 05:59:39;;;;;;;4.20;2.00;;;3.50;99.90;;;;;;5048179;28;20025;-74
2023/11/29 06:02:05;;;;;;;6.20;2.47;;;3.50;99.90;;;;;;5052091;28;20082;-74
2023/11/29 06:04:34;;;;;;;6.07;2.40;;;3.50;99.90;;;;;;5033123;28;20524;-74
2023/11/29 06:07:00;;;;;;;4.53;1.80;;;3.50;99.90;;;;;;5033189;28;20116;-74
2023/11/29 06:09:30;;;;;;;3.87;1.87;;;3.50;99.90;;;;;;5014936;28;20112;-75
2023/11/29 06:11:59;;;;;;;5.23;2.13;;;3.50;99.90;;;;;;5032773;28;20042;-75
2023/11/29 06:14:25;;;;;;;4.57;2.10;;;3.50;99.90;;;;;;5032689;28;20046;-75
2023/11/29 06:16:51;;;;;;;3.27;1.80;;;3.60;99.90;;;;;;5032800;28;20083;-74
2023/11/29 06:19:17;;;;;;;4.00;2.00;;;3.60;99.90;;;;;;5032957;28;20065;-74
2023/11/29 06:21:44;;;;;;;4.83;2.33;;;3.60;99.90;;;;;;5033587;28;20126;-74
2023/11/29 06:24:10;;;;;;;7.70;2.27;;;3.60;99.90;;;;;;5032401;28;20057;-74
2023/11/29 06:26:40;;;;;;;5.70;2.47;;;3.60;99.90;;;;;;5032746;28;20037;-75
2023/11/29 06:29:09;;;;;;;7.87;3.10;;;3.60;99.90;;;;;;5033553;28;20037;-75
2023/11/29 06:31:37;;;;;;;6.90;2.67;;;3.60;99.90;;;;;;5033191;28;20445;-75
2023/11/29 06:34:05;;;;;;;5.60;2.63;;;3.60;99.90;;;;;;5040341;28;20476;-75
2023/11/29 06:36:32;;;;;;;6.23;3.20;;;3.60;99.90;;;;;;5053149;28;20075;-73
2023/11/29 06:38:57;;;;;;;6.50;2.37;;;3.70;99.90;;;;;;5053040;28;20397;-75
2023/11/29 06:41:24;;;;;;;5.00;2.23;;;3.70;99.90;;;;;;5052912;28;20052;-75
2023/11/29 06:43:52;;;;;;;5.00;2.13;;;3.70;99.90;;;;;;5052405;28;20044;-74
2023/11/29 06:46:18;;;;;;;4.80;2.20;;;3.70;99.90;;;;;;5052910;28;20029;-75
2023/11/29 06:48:44;;;;;;;5.73;2.67;;;3.70;99.90;;;;;;5052943;28;20453;-75
2023/11/29 06:51:11;;;;;;;7.40;1.90;;;3.70;99.90;;;;;;5052862;28;20034;-74
2023/11/29 06:53:38;;;;;;;6.90;2.57;;;3.70;99.90;;;;;;5052494;28;20033;-74
2023/11/29 06:56:04;;;;;;;4.70;2.67;;;3.70;99.90;;;;;;5052498;28;20094;-75
2023/11/29 06:58:30;;;;;;;4.97;2.30;;;3.70;99.90;;;;;;5034836;28;20033;-76
2023/11/29 07:00:56;;;;;;;5.80;2.37;;;3.80;99.90;;;;;;5053124;28;20052;-75
2023/11/29 07:03:29;;;;;;;7.53;2.40;;;3.80;99.90;;;;;;5050121;28;20041;-75
2023/11/29 07:06:13;;;;;;;4.47;2.42;;;3.80;99.90;;;;;;5043598;28;20438;-76
2023/11/29 07:08:39;;;;;;;6.40;2.47;;;3.80;99.90;;;;;;5045294;28;20373;-74
2023/11/29 07:11:05;;;;;;;5.30;2.77;;;3.80;99.90;;;;;;5051943;28;20037;-77
2023/11/29 07:13:31;;;;;;;6.97;2.90;;;3.80;99.90;;;;;;5039712;28;20461;-73
2023/11/29 07:15:58;;;;;;;6.13;2.97;;;3.90;99.90;;;;;;5072671;28;20396;-73
2023/11/29 07:18:25;;;;;;;6.13;3.40;;;3.90;99.90;;;;;;5072471;28;20392;-73
2023/11/29 07:20:51;;;;;;;6.97;3.47;;;3.90;99.90;;;;;;5072420;28;20029;-74
2023/11/29 07:23:17;;;;;;;6.77;3.40;;;4.00;99.90;;;;;;5072072;28;20381;-74
2023/11/29 07:25:43;;;;;;;5.97;3.10;;;4.00;99.90;;;;;;5072128;28;20036;-74
2023/11/29 07:28:09;;;;;;;7.00;3.80;;;4.00;99.90;;;;;;5054468;28;20024;-72
2023/11/29 07:30:34;;;;;;;9.17;4.40;;;4.00;99.90;;;;;;5066804;28;20049;-72
2023/11/29 07:33:00;;;;;;;11.37;3.90;;;4.10;99.90;;;;;;5051781;28;20029;-73
2023/11/29 07:35:26;;;;;;;10.20;4.57;;;4.10;99.90;;;;;;5051958;28;20044;-75
2023/11/29 07:37:52;;;;;;;25.63;4.60;;;4.20;99.90;;;;;;5052083;28;20091;-77
2023/11/29 07:40:17;;;;;;;9.03;3.67;;;4.20;99.90;;;;;;5051463;28;20098;-75
2023/11/29 07:42:43;;;;;;;9.83;3.70;;;4.30;99.90;;;;;;5051814;28;20127;-78
2023/11/29 07:45:09;;;;;;;11.37;3.10;;;4.40;99.90;;;;;;5055060;28;20041;-77
2023/11/29 07:47:35;;;;;;;6.13;3.30;;;4.40;99.90;;;;;;5055300;28;20032;-85
2023/11/29 07:50:01;;;;;;;6.23;2.90;;;4.50;99.90;;;;;;5037477;28;20041;-69
2023/11/29 07:52:26;;;;;;;4.83;2.73;;;4.60;99.90;;;;;;5054867;28;20067;-68
2023/11/29 07:54:52;;;;;;;9.97;2.87;;;4.60;99.90;;;;;;5074499;28;20032;-69
2023/11/29 07:57:18;;;;;;;8.57;2.77;;;4.70;99.90;;;;;;5068163;28;20083;-68
2023/11/29 07:59:46;;;;;;;5.80;2.80;;;4.70;99.90;;;;;;5054997;28;20037;-77
2023/11/29 08:02:11;;;;;;;7.87;2.60;;;4.80;99.90;;;;;;5054679;28;20614;-75
2023/11/29 08:04:38;;;;;;;6.00;2.37;;;4.80;99.90;;;;;;5055041;28;20075;-75
2023/11/29 08:07:03;;;;;;;4.17;2.30;;;4.90;99.90;;;;;;5055373;28;20037;-74
2023/11/29 08:09:29;;;;;;;8.53;2.43;;;5.00;99.90;;;;;;5055247;28;20106;-75
2023/11/29 08:11:55;;;;;;;6.83;2.77;;;5.00;99.70;;;;;;5055417;28;20160;-75
2023/11/29 08:14:21;;;;;;;6.07;3.10;;;5.00;99.50;;;;;;5055144;28;20596;-75
2023/11/29 08:16:48;;;;;;;6.63;3.33;;;5.10;99.50;;;;;;5055494;28;20029;-75
2023/11/29 08:19:26;;;;;;;6.63;3.10;;;5.10;99.40;;;;;;5055466;28;20433;-75
2023/11/29 08:21:55;;;;;;;8.77;3.30;;;5.20;99.40;;;;;;5053828;28;20044;-76
2023/11/29 08:24:21;;;;;;;5.73;2.70;;;5.30;99.50;;;;;;5054708;28;20047;-75
2023/11/29 08:26:47;;;;;;;4.50;2.60;;;5.30;99.50;;;;;;5055624;28;20029;-77
2023/11/29 08:29:19;;;;;;;4.03;2.90;;;5.40;99.40;;;;;;5055165;28;20037;-75
2023/11/29 08:31:49;;;;;;;4.32;2.20;;;5.40;99.30;;;;;;5055188;28;20385;-75
2023/11/29 08:34:17;;;;;;;3.53;1.73;;;5.50;99.10;;;;;;5055118;28;20090;-75
2023/11/29 08:36:46;;;;;;;2.13;1.30;;;5.50;98.70;;;;;;5055016;28;20056;-75
2023/11/29 08:39:15;;;;;;;2.00;1.00;;;5.60;98.20;;;;;;5055018;28;20072;-75
2023/11/29 08:41:44;;;;;;;6.70;1.40;;;5.70;97.80;;;;;;5054827;28;20037;-75
2023/11/29 08:44:15;;;;;;;3.73;1.20;;;5.70;97.70;;;;;;5054558;28;20056;-75
2023/11/29 08:46:44;;;;;;;2.93;1.57;;;5.80;97.50;;;;;;5054676;28;20029;-73
2023/11/29 08:49:10;;;;;;;4.70;1.53;;;5.90;96.80;;;;;;5054666;28;20034;-73
2023/11/29 08:51:36;;;;;;;3.43;1.40;;;5.90;96.40;;;;;;5054626;28;20444;-74
2023/11/29 08:54:03;;;;;;;2.73;1.47;;;6.00;96.30;;;;;;5054239;28;20068;-73
2023/11/29 08:56:29;;;;;;;2.93;1.40;;;6.10;96.20;;;;;;5054223;28;20131;-75
2023/11/29 08:58:56;;;;;;;2.30;1.40;;;6.10;95.90;;;;;;5054188;28;20447;-74
2023/11/29 09:01:22;;;;;;;2.03;1.23;;;6.10;95.80;;;;;;5054080;28;20037;-74
2023/11/29 09:03:48;;;;;;;3.27;1.60;;;6.20;95.60;;;;;;5054161;28;20124;-74
2023/11/29 09:06:15;;;;;;;2.67;1.20;;;6.30;95.30;;;;;;5054262;28;20037;-75
2023/11/29 09:08:42;;;;;;;3.67;1.93;;;6.30;94.70;;;;;;5054492;28;20444;-75
2023/11/29 09:11:08;;;;;;;3.13;1.30;;;6.40;94.40;;;;;;5054344;28;20048;-74
2023/11/29 09:13:35;;;;;;;2.33;1.30;;;6.50;94.10;;;;;;5054156;28;20083;-75
2023/11/29 09:16:01;;;;;;;2.57;1.20;;;6.50;93.50;;;;;;5054017;28;20036;-75
2023/11/29 09:18:26;;;;;;;1.80;1.07;;;6.60;92.90;;;;;;5054081;28;20033;-75
2023/11/29 09:20:52;;;;;;;3.97;1.20;;;6.70;92.20;;;;;;5054220;28;20045;-75
2023/11/29 09:23:18;;;;;;;2.13;1.17;;;6.70;91.90;;;;;;5066772;28;20064;-74
2023/11/29 09:25:44;;;;;;;4.20;1.43;;;6.80;91.70;;;;;;5073546;28;20087;-76
2023/11/29 09:28:15;;;;;;;1.90;1.10;;;6.80;91.40;;;;;;5055928;28;20040;-76
2023/11/29 09:30:41;;;;;;;4.23;1.20;;;6.90;91.40;;;;;;5055986;28;20078;-74
2023/11/29 09:33:07;;;;;;;2.30;1.20;;;7.00;90.70;;;;;;5073730;28;20037;-75
2023/11/29 09:35:33;;;;;;;2.10;1.10;;;7.00;90.00;;;;;;5073664;28;20036;-75
2023/11/29 09:37:59;;;;;;;1.37;0.93;;;7.10;89.30;;;;;;5055738;28;20094;-75
2023/11/29 09:40:25;;;;;;;2.40;1.20;;;7.10;89.00;;;;;;5073711;28;20036;-75
2023/11/29 09:42:53;;;;;;;1.90;1.00;;;7.20;88.30;;;;;;5073438;28;20040;-76
2023/11/29 09:45:25;;;;;;;1.90;1.03;;;7.20;88.10;;;;;;5073225;28;20048;-75
2023/11/29 09:47:51;;;;;;;1.90;1.30;;;7.30;87.80;;;;;;5050662;28;20485;-75
2023/11/29 09:50:17;;;;;;;4.03;1.20;;;7.30;87.50;;;;;;5020693;28;20401;-75
2023/11/29 09:52:44;;;;;;;4.23;1.17;;;7.40;85.40;;;;;;5036743;28;20030;-75
2023/11/29 09:55:20;;;;;;;1.97;1.20;;;7.40;85.00;;;;;;5033916;28;20033;-74
2023/11/29 09:57:46;;;;;;;3.77;1.20;;;7.50;84.60;;;;;;5033653;28;20116;-75
2023/11/29 10:00:15;;;;;;;1.90;1.40;;;7.50;83.20;;;;;;5033560;28;20083;-74
2023/11/29 10:02:48;;;;;;;2.00;1.27;;;7.60;83.10;;;;;;5034008;28;20425;-75
2023/11/29 10:05:17;;;;;;;3.30;1.40;;;7.60;82.10;;;;;;5033861;28;20045;-75
2023/11/29 10:07:49;;;;;;;1.63;1.17;;;7.70;81.60;;;;;;5033446;28;20053;-75
2023/11/29 10:10:15;;;;;;;7.07;1.38;;;7.80;82.00;;;;;;5032609;28;20037;-74
2023/11/29 10:12:42;;;;;;;2.97;1.40;;;7.80;81.90;;;;;;5038703;23;20065;-74
2023/11/29 10:15:09;;;;;;;6.43;1.17;;;7.90;81.30;;;;;;5013554;28;20089;-75
2023/11/29 10:17:35;;;;;;;2.17;1.30;;;8.00;79.80;;;;;;5013574;28;20478;-75
2023/11/29 10:20:01;;;;;;;5.33;1.20;;;8.00;79.70;;;;;;5013536;28;20037;-74
2023/11/29 10:22:26;;;;;;;1.97;1.20;;;8.00;79.00;;;;;;5013635;28;20030;-75
2023/11/29 10:24:52;;;;;;;2.30;1.20;;;8.10;79.20;;;;;;5013416;28;20073;-75
2023/11/29 10:27:18;;;;;;;1.70;1.20;;;8.20;78.90;;;;;;5013196;28;20037;-74
2023/11/29 10:29:46;;;;;;;2.00;1.40;;;8.20;76.70;;;;;;5013224;28;20138;-75
2023/11/29 10:32:13;;;;;;;1.87;1.30;;;8.20;76.90;;;;;;5013446;28;20104;-75
2023/11/29 10:34:39;;;;;;;4.70;1.47;;;8.30;77.30;;;;;;5013024;28;20042;-75
2023/11/29 10:37:06;;;;;;;2.20;1.27;;;8.40;76.50;;;;;;5013283;28;20037;-75
2023/11/29 10:39:33;;;;;;;1.63;1.17;;;8.40;76.00;;;;;;5012330;28;20041;-75
2023/11/29 10:42:02;;;;;;;1.73;1.03;;;8.50;75.50;;;;;;5012826;28;20038;-74
2023/11/29 10:44:36;;;;;;;1.73;1.20;;;8.50;74.70;;;;;;5011782;28;20517;-73
2023/11/29 10:47:32;;;;;;;2.33;1.50;;;8.50;71.90;;;;;;5012987;28;20037;-73
2023/11/29 10:50:08;;;;;;;1.77;1.20;;;8.50;72.50;;;;;;5013354;28;20038;-74
2023/11/29 10:52:34;;;;;;;3.83;1.13;;;8.60;72.40;;;;;;5013657;28;20038;-73
2023/11/29 10:55:01;;;;;;;3.37;1.10;;;8.60;71.70;;;;;;5000445;28;20058;-74
2023/11/29 10:57:39;;;;;;;106.93;21.50;;;8.70;71.70;;;;;;5006474;28;20061;-75
2023/11/29 11:00:13;;;;;;;4.53;1.67;;;8.70;73.60;;;;;;5013128;28;20310;-74
2023/11/29 11:02:44;;;;;;;7.57;2.40;;;8.80;76.00;;;;;;5011885;28;20046;-74
2023/11/29 11:05:10;;;;;;;2.33;1.63;;;8.80;74.40;;;;;;5013109;28;20397;-74
2023/11/29 11:07:43;;;;;;;2.20;1.30;;;8.90;70.40;;;;;;5013509;28;20030;-74
2023/11/29 11:10:11;;;;;;;2.60;1.30;;;8.90;70.40;;;;;;5013214;28;20460;-74
2023/11/29 11:12:38;;;;;;;3.27;1.50;;;8.90;72.30;;;;;;5012891;28;20076;-74
2023/11/29 11:15:07;;;;;;;3.83;1.67;;;9.00;72.20;;;;;;5013160;28;20034;-74
2023/11/29 11:17:34;;;;;;;1.73;1.13;;;9.10;69.90;;;;;;5012931;28;20069;-74
2023/11/29 11:20:08;;;;;;;1.43;1.10;;;9.10;69.40;;;;;;5016510;28;20049;-74
2023/11/29 11:22:42;;;;;;;2.27;1.30;;;9.10;69.50;;;;;;5016189;28;20096;-73
2023/11/29 11:25:15;;;;;;;1.57;1.00;;;9.10;69.50;;;;;;4997745;28;20453;-73
2023/11/29 11:27:47;;;;;;;3.43;1.37;;;9.20;69.30;;;;;;5015565;28;20084;-74
2023/11/29 11:30:18;;;;;;;3.00;1.40;;;9.20;68.80;;;;;;5015572;28;20117;-74
2023/11/29 11:32:49;;;;;;;2.67;1.40;;;9.30;68.70;;;;;;5015856;28;20439;-73
2023/11/29 11:35:21;;;;;;;2.43;1.10;;;9.30;67.10;;;;;;4997592;28;20375;-74
2023/11/29 11:37:47;;;;;;;1.83;1.27;;;9.30;67.10;;;;;;5015622;28;20033;-74
2023/11/29 11:40:14;;;;;;;2.87;1.30;;;9.30;65.20;;;;;;5016034;28;20271;-74
2023/11/29 11:42:43;;;;;;;3.30;1.53;;;9.30;66.40;;;;;;5016085;28;20393;-74
2023/11/29 11:45:11;;;;;;;3.37;1.30;;;9.30;67.10;;;;;;5016047;28;20093;-74
2023/11/29 11:47:38;;;;;;;3.47;1.30;;;9.40;67.00;;;;;;5016108;28;20116;-75
2023/11/29 11:50:04;;;;;;;1.90;1.20;;;9.40;67.60;;;;;;5015991;28;20506;-74
2023/11/29 11:52:31;;;;;;;2.70;1.40;;;9.40;66.00;;;;;;5016102;28;20485;-74
2023/11/29 11:55:03;;;;;;;2.30;1.70;;;9.40;66.10;;;;;;5015933;28;20030;-75
2023/11/29 11:57:30;;;;;;;1.42;1.08;;;9.50;66.10;;;;;;5015783;28;20146;-74
2023/11/29 11:59:59;;;;;;;3.13;1.70;;;9.50;66.00;;;;;;5015559;28;20474;-75
2023/11/29 12:02:26;;;;;;;3.33;1.40;;;9.60;66.00;;;;;;5015558;28;20557;-75
2023/11/29 12:04:53;;;;;;;2.40;1.50;;;9.50;65.80;;;;;;5014949;28;20386;-74
2023/11/29 12:07:20;;;;;;;6.17;1.30;;;9.60;65.70;;;;;;5015494;28;20037;-74
2023/11/29 12:09:46;;;;;;;2.93;1.30;;;9.60;64.80;;;;;;5015636;28;20037;-74
2023/11/29 12:12:14;;;;;;;3.87;1.17;;;9.60;64.80;;;;;;4998124;28;20573;-74
2023/11/29 12:14:41;;;;;;;3.10;1.37;;;9.60;64.90;;;;;;5015548;28;20176;-74
2023/11/29 12:17:07;;;;;;;1.70;1.20;;;9.60;65.20;;;;;;5015273;28;20069;-74
2023/11/29 12:19:33;;;;;;;1.97;1.30;;;9.60;65.60;;;;;;5014773;28;20053;-74
2023/11/29 12:22:01;;;;;;;3.13;1.27;;;9.60;64.50;;;;;;5014576;28;20026;-74
2023/11/29 12:24:52;;;;;;;2.00;1.20;;;9.60;63.90;;;;;;5014890;28;20458;-75
2023/11/29 12:27:18;;;;;;;2.00;1.30;;;9.60;64.50;;;;;;5015453;28;20498;-74
2023/11/29 12:29:48;;;;;;;3.87;1.40;;;9.60;64.70;;;;;;5014143;28;20125;-74
2023/11/29 12:32:17;;;;;;;1.97;1.17;;;9.60;64.40;;;;;;4997989;28;20117;-75
2023/11/29 12:34:46;;;;;;;2.33;1.10;;;9.60;65.00;;;;;;5015719;28;20398;-74
2023/11/29 12:37:16;;;;;;;1.97;1.20;;;9.60;65.50;;;;;;5015727;28;20406;-74
2023/11/29 12:39:45;;;;;;;2.03;1.50;;;9.60;64.90;;;;;;5015250;28;20057;-74
2023/11/29 12:42:11;;;;;;;3.07;1.60;;;9.60;64.70;;;;;;5014885;28;20038;-75
2023/11/29 12:44:40;;;;;;;1.90;1.47;;;9.60;64.00;;;;;;5014663;28;20398;-74
2023/11/29 12:47:09;;;;;;;4.43;1.73;;;9.60;62.90;;;;;;5015081;28;20444;-74
2023/11/29 12:49:38;;;;;;;2.07;1.40;;;9.60;63.40;;;;;;5015003;28;20046;-75
2023/11/29 12:52:22;;;;;;;6.57;1.47;;;9.60;63.10;;;;;;5013737;28;20068;-74
2023/11/29 12:54:51;;;;;;;2.10;1.40;;;9.60;63.70;;;;;;5014671;28;20437;-74